createdAt,value
2018-12-08T00:00:42.428Z,48.91
2018-12-08T00:03:13.322Z,49.36
2018-12-08T00:05:43.828Z,48.50
2018-12-08T00:08:14.743Z,49.26
2018-12-08T00:10:45.744Z,49.04
2018-12-08T00:13:16.365Z,48.44
2018-12-08T00:15:46.641Z,49.25
2018-12-08T00:18:17.396Z,48.57
2018-12-08T00:20:48.008Z,48.93
2018-12-08T00:23:17.860Z,48.91
2018-12-08T00:25:47.665Z,49.22
2018-12-08T00:28:17.424Z,49.53
2018-12-08T00:30:57.804Z,49.25
2018-12-08T00:33:27.464Z,49.56
2018-12-08T00:35:57.184Z,49.41
2018-12-08T00:38:27.080Z,49.84
2018-12-08T00:40:57.527Z,48.96
2018-12-08T00:43:28.028Z,48.52
2018-12-08T00:45:58.499Z,48.78
2018-12-08T00:48:29.511Z,48.97
2018-12-08T00:51:00.076Z,48.48
2018-12-08T00:53:30.753Z,49.69
2018-12-08T00:56:01.226Z,49.43
2018-12-08T00:58:32.114Z,49.37
2018-12-08T01:01:02.864Z,50.01
2018-12-08T01:03:33.438Z,49.91
2018-12-08T01:06:04.068Z,49.61
2018-12-08T01:08:34.643Z,50.59
2018-12-08T01:11:05.456Z,49.67
2018-12-08T01:13:36.232Z,50.34
2018-12-08T01:16:06.538Z,50.01
2018-12-08T01:18:36.995Z,49.97
2018-12-08T01:21:08.511Z,50.32
2018-12-08T01:23:38.503Z,50.44
2018-12-08T01:26:08.347Z,50.72
2018-12-08T01:28:38.230Z,50.07
2018-12-08T01:31:08.401Z,50.81
2018-12-08T01:33:38.905Z,49.88
2018-12-08T01:36:09.319Z,50.36
2018-12-08T01:38:39.936Z,50.20
2018-12-08T01:41:10.480Z,50.80
2018-12-08T01:43:40.809Z,50.26
2018-12-08T01:46:11.299Z,51.21
2018-12-08T01:48:41.963Z,51.29
2018-12-08T01:51:12.601Z,52.09
2018-12-08T01:53:43.224Z,51.97
2018-12-08T01:56:14.053Z,52.69
2018-12-08T01:58:44.568Z,52.75
2018-12-08T02:01:15.212Z,52.36
2018-12-08T02:03:45.944Z,52.67
2018-12-08T02:06:16.479Z,53.02
2018-12-08T02:08:47.089Z,52.10
2018-12-08T02:11:24.695Z,52.54
2018-12-08T02:13:49.989Z,52.86
2018-12-08T02:16:20.945Z,52.35
2018-12-08T02:18:51.451Z,52.02
2018-12-08T02:21:22.420Z,53.02
2018-12-08T02:23:53.028Z,53.41
2018-12-08T02:26:23.782Z,53.43
2018-12-08T02:28:54.064Z,52.04
2018-12-08T02:31:24.968Z,51.23
2018-12-08T02:33:55.348Z,51.15
2018-12-08T02:36:25.907Z,50.55
2018-12-08T02:38:56.259Z,50.40
2018-12-08T02:41:27.249Z,50.17
2018-12-08T02:43:57.769Z,52.15
2018-12-08T02:46:28.143Z,51.28
2018-12-08T02:48:58.812Z,50.72
2018-12-08T02:51:29.817Z,49.96
2018-12-08T02:54:00.379Z,50.57
2018-12-08T02:56:30.909Z,49.49
2018-12-08T02:59:02.093Z,49.83
2018-12-08T03:01:33.459Z,49.27
2018-12-08T03:04:04.200Z,48.14
2018-12-08T03:06:35.096Z,49.20
2018-12-08T03:09:07.531Z,50.34
2018-12-08T03:15:26.908Z,52.39
2018-12-08T03:17:57.319Z,54.28
2018-12-08T03:20:27.932Z,55.97
2018-12-08T03:22:58.470Z,55.60
2018-12-08T03:25:29.171Z,53.81
2018-12-08T03:27:59.912Z,53.82
2018-12-08T03:30:30.445Z,52.81
2018-12-08T03:33:00.888Z,51.64
2018-12-08T03:35:31.230Z,52.73
2018-12-08T03:38:01.674Z,53.18
2018-12-08T03:40:32.097Z,53.32
2018-12-08T03:43:03.795Z,54.03
2018-12-08T03:45:34.405Z,53.27
2018-12-08T03:48:04.276Z,54.85
2018-12-08T03:50:34.192Z,55.63
2018-12-08T03:53:05.727Z,56.55
2018-12-08T03:55:36.296Z,56.80
2018-12-08T03:58:06.441Z,55.82
2018-12-08T04:00:36.259Z,56.30
2018-12-08T04:03:06.770Z,55.00
2018-12-08T04:05:36.584Z,55.04
2018-12-08T04:08:06.412Z,54.91
2018-12-08T04:10:36.269Z,55.48
2018-12-08T04:13:06.155Z,55.51
2018-12-08T04:15:36.077Z,55.37
2018-12-08T04:18:06.027Z,55.35
2018-12-08T04:20:35.812Z,55.42
2018-12-08T04:23:05.651Z,54.43
2018-12-08T04:25:35.532Z,55.25
2018-12-08T04:28:05.271Z,55.17
2018-12-08T04:30:35.049Z,53.78
2018-12-08T04:33:04.874Z,54.83
2018-12-08T04:35:34.761Z,54.67
2018-12-08T04:38:04.655Z,54.52
2018-12-08T04:40:34.513Z,53.75
2018-12-08T04:43:04.239Z,54.21
2018-12-08T04:45:34.171Z,54.46
2018-12-08T04:48:04.074Z,54.39
2018-12-08T04:50:34.165Z,55.36
2018-12-08T04:53:04.568Z,55.05
2018-12-08T04:55:35.310Z,54.89
2018-12-08T04:58:05.909Z,54.07
2018-12-08T05:00:36.584Z,54.60
2018-12-08T05:03:08.291Z,54.40
2018-12-08T05:05:39.157Z,54.32
2018-12-08T05:08:09.686Z,54.05
2018-12-08T05:10:40.110Z,54.68
2018-12-08T05:13:10.729Z,53.98
2018-12-08T05:15:41.484Z,54.89
2018-12-08T05:18:11.899Z,54.05
2018-12-08T05:20:42.524Z,54.39
2018-12-08T05:23:13.355Z,54.51
2018-12-08T05:25:43.914Z,55.24
2018-12-08T05:28:14.761Z,55.12
2018-12-08T05:30:45.124Z,55.98
2018-12-08T05:33:15.919Z,55.12
2018-12-08T05:35:46.955Z,55.82
2018-12-08T05:38:17.744Z,55.48
2018-12-08T05:40:48.543Z,55.51
2018-12-08T05:43:19.968Z,54.77
2018-12-08T05:45:50.400Z,55.37
2018-12-08T05:48:20.989Z,55.26
2018-12-08T05:50:51.504Z,55.59
2018-12-08T05:53:22.664Z,55.67
2018-12-08T06:00:46.491Z,55.99
2018-12-08T06:03:16.794Z,56.25
2018-12-08T06:05:47.281Z,56.14
2018-12-08T06:08:17.892Z,55.64
2018-12-08T06:10:48.326Z,56.44
2018-12-08T06:13:18.877Z,56.29
2018-12-08T06:15:49.240Z,54.52
2018-12-08T06:18:20.875Z,52.77
2018-12-08T06:20:51.441Z,54.24
2018-12-08T06:23:22.077Z,52.46
2018-12-08T06:25:52.963Z,50.95
2018-12-08T06:28:29.635Z,52.64
2018-12-08T06:31:00.316Z,51.53
2018-12-08T06:33:30.861Z,51.58
2018-12-08T06:36:01.027Z,49.19
2018-12-08T06:38:32.908Z,46.56
2018-12-08T06:41:03.516Z,45.96
2018-12-08T06:43:33.796Z,44.71
2018-12-08T06:46:04.568Z,43.16
2018-12-08T06:48:36.057Z,43.58
2018-12-08T06:51:06.632Z,42.21
2018-12-08T06:53:37.139Z,41.42
2018-12-08T06:56:07.723Z,42.11
2018-12-08T06:58:38.041Z,42.31
2018-12-08T07:01:08.631Z,42.29
2018-12-08T07:03:39.129Z,42.98
2018-12-08T07:06:09.624Z,45.20
2018-12-08T07:08:40.763Z,45.14
2018-12-08T07:11:11.177Z,45.61
2018-12-08T07:13:41.620Z,46.50
2018-12-08T07:16:12.174Z,46.76
2018-12-08T07:18:43.344Z,48.67
2018-12-08T07:21:14.065Z,48.73
2018-12-08T07:23:44.633Z,46.96
2018-12-08T07:26:15.202Z,47.70
2018-12-08T07:28:46.531Z,48.20
2018-12-08T07:31:17.172Z,47.23
2018-12-08T07:33:47.514Z,47.69
2018-12-08T07:36:18.222Z,47.40
2018-12-08T07:38:48.968Z,46.31
2018-12-08T07:41:19.497Z,43.87
2018-12-08T07:43:49.983Z,42.37
2018-12-08T07:46:20.551Z,40.27
2018-12-08T07:48:51.382Z,37.73
2018-12-08T07:51:21.998Z,36.38
2018-12-08T07:53:52.666Z,37.43
2018-12-08T07:56:22.482Z,36.75
2018-12-08T07:58:52.366Z,37.14
2018-12-08T08:01:22.578Z,35.86
2018-12-08T08:03:52.635Z,33.45
2018-12-08T08:06:22.508Z,33.70
2018-12-08T08:08:52.468Z,33.38
2018-12-08T08:11:22.334Z,33.45
2018-12-08T08:13:52.221Z,34.65
2018-12-08T08:16:22.088Z,34.50
2018-12-08T08:18:51.973Z,35.01
2018-12-08T08:21:21.912Z,36.08
2018-12-08T08:23:51.800Z,35.08
2018-12-08T08:26:21.709Z,34.73
2018-12-08T08:28:51.594Z,36.22
2018-12-08T08:31:21.400Z,37.20
2018-12-08T08:33:51.892Z,36.49
2018-12-08T08:36:21.805Z,35.55
2018-12-08T08:38:51.690Z,35.77
2018-12-08T08:41:21.597Z,34.29
2018-12-08T08:43:51.519Z,33.01
2018-12-08T08:46:21.420Z,34.76
2018-12-08T08:48:51.320Z,34.34
2018-12-08T08:51:21.133Z,32.59
2018-12-08T08:53:51.059Z,30.62
2018-12-08T08:56:20.982Z,30.20
2018-12-08T08:58:50.834Z,28.86
2018-12-08T09:01:20.706Z,29.06
2018-12-08T09:03:50.868Z,29.09
2018-12-08T09:06:20.776Z,27.75
2018-12-08T09:08:50.757Z,27.54
2018-12-08T09:11:20.624Z,27.29
2018-12-08T09:13:50.493Z,26.93
2018-12-08T09:16:20.377Z,26.08
2018-12-08T09:18:50.165Z,25.20
2018-12-08T09:21:20.012Z,25.41
2018-12-08T09:23:49.798Z,24.22
2018-12-08T09:26:19.700Z,24.46
2018-12-08T09:28:49.484Z,24.32
2018-12-08T09:31:20.347Z,24.33
2018-12-08T09:33:52.924Z,24.28
2018-12-08T09:36:23.367Z,24.22
2018-12-08T09:38:53.884Z,22.55
2018-12-08T09:41:24.646Z,23.18
2018-12-08T09:43:55.349Z,22.52
2018-12-08T09:46:25.876Z,21.31
2018-12-08T09:48:57.600Z,22.33
2018-12-08T09:51:28.292Z,23.62
2018-12-08T09:53:58.545Z,24.81
2018-12-08T09:56:29.261Z,25.25
2018-12-08T09:58:59.418Z,26.34
2018-12-08T10:01:29.330Z,25.96
2018-12-08T10:03:59.310Z,25.12
2018-12-08T10:06:29.200Z,26.27
2018-12-08T10:08:59.097Z,27.59
2018-12-08T10:11:29.000Z,26.49
2018-12-08T10:13:58.831Z,27.28
2018-12-08T10:16:28.711Z,27.72
2018-12-08T10:18:58.607Z,28.11
2018-12-08T10:21:28.460Z,27.56
2018-12-08T10:23:58.187Z,27.94
2018-12-08T10:26:28.050Z,28.14
2018-12-08T10:28:57.853Z,29.29
2018-12-08T10:31:27.729Z,28.67
2018-12-08T10:33:57.632Z,28.26
2018-12-08T10:36:27.532Z,27.35
2018-12-08T10:38:57.367Z,26.91
2018-12-08T10:41:27.250Z,28.72
2018-12-08T10:43:57.141Z,27.94
2018-12-08T10:46:27.070Z,27.77
2018-12-08T10:48:56.970Z,28.11
2018-12-08T10:51:26.819Z,27.88
2018-12-08T10:53:56.650Z,29.33
2018-12-08T10:56:26.545Z,29.05
2018-12-08T10:58:56.407Z,28.79
2018-12-08T11:01:30.232Z,29.40
2018-12-08T11:04:00.114Z,29.92
2018-12-08T11:06:30.395Z,30.97
2018-12-08T11:09:00.776Z,31.00
2018-12-08T11:11:30.632Z,30.13
2018-12-08T11:14:00.536Z,30.06
2018-12-08T11:16:30.464Z,30.64
2018-12-08T11:19:00.279Z,31.85
2018-12-08T11:21:30.209Z,33.29
2018-12-08T11:24:00.084Z,33.82
2018-12-08T11:26:29.945Z,33.79
2018-12-08T11:28:59.927Z,32.61
2018-12-08T11:31:29.813Z,33.23
2018-12-08T11:33:59.650Z,33.03
2018-12-08T11:36:30.035Z,32.78
2018-12-08T11:39:00.645Z,32.50
2018-12-08T11:41:30.841Z,32.79
2018-12-08T11:44:00.724Z,33.77
2018-12-08T11:46:30.601Z,33.38
2018-12-08T11:49:01.186Z,33.95
2018-12-08T11:51:31.595Z,33.03
2018-12-08T11:54:02.211Z,34.22
2018-12-08T11:56:32.651Z,34.63
2018-12-08T11:59:03.268Z,35.51
2018-12-08T12:01:33.920Z,34.47
2018-12-08T12:04:04.620Z,34.66
2018-12-08T12:06:35.332Z,34.59
2018-12-08T12:09:08.309Z,34.01
2018-12-08T12:11:39.220Z,33.49
2018-12-08T12:14:10.445Z,34.79
2018-12-08T12:16:41.339Z,36.22
2018-12-08T12:19:13.440Z,34.65
2018-12-08T12:21:44.567Z,35.02
2018-12-08T12:24:14.971Z,35.15
2018-12-08T12:26:45.804Z,39.40
2018-12-08T12:29:17.555Z,34.22
2018-12-08T12:31:48.012Z,35.09
2018-12-08T12:34:19.043Z,35.21
2018-12-08T12:36:49.868Z,35.33
2018-12-08T12:39:21.387Z,35.94
2018-12-08T12:41:52.181Z,35.31
2018-12-08T12:44:23.463Z,34.36
2018-12-08T12:46:54.168Z,34.89
2018-12-08T12:49:24.391Z,35.87
2018-12-08T12:51:54.358Z,36.23
2018-12-08T12:54:24.728Z,35.73
2018-12-08T12:56:55.355Z,36.54
2018-12-08T12:59:26.345Z,36.01
2018-12-08T13:01:57.083Z,36.63
2018-12-08T13:04:27.570Z,36.88
2018-12-08T13:06:58.855Z,35.57
2018-12-08T13:09:29.671Z,35.82
2018-12-08T13:12:00.413Z,36.07
2018-12-08T13:14:31.007Z,35.86
2018-12-08T13:17:01.629Z,36.16
2018-12-08T13:19:33.268Z,36.94
2018-12-08T13:22:03.582Z,37.54
2018-12-08T13:24:34.644Z,36.72
2018-12-08T13:27:05.267Z,35.83
2018-12-08T13:29:37.073Z,36.07
2018-12-08T13:32:07.690Z,35.90
2018-12-08T13:34:38.307Z,36.06
2018-12-08T13:37:09.066Z,34.84
2018-12-08T13:39:39.887Z,34.78
2018-12-08T13:42:10.513Z,34.96
2018-12-08T13:44:41.580Z,34.65
2018-12-08T13:47:12.078Z,34.75
2018-12-08T13:49:43.267Z,34.96
2018-12-08T13:52:13.978Z,35.61
2018-12-08T13:54:51.224Z,35.78
2018-12-08T13:57:21.828Z,35.50
2018-12-08T13:59:54.686Z,35.70
2018-12-08T14:02:25.263Z,35.70
2018-12-08T14:04:56.068Z,36.60
2018-12-08T14:07:27.106Z,38.01
2018-12-08T14:09:57.900Z,37.89
2018-12-08T14:12:28.320Z,37.04
2018-12-08T14:14:58.852Z,37.60
2018-12-08T14:17:29.499Z,36.77
2018-12-08T14:20:10.218Z,36.21
2018-12-08T14:22:41.051Z,36.34
2018-12-08T14:25:11.811Z,36.07
2018-12-08T14:27:42.524Z,36.89
2018-12-08T14:30:13.681Z,37.06
2018-12-08T14:32:44.318Z,36.92
2018-12-08T14:35:15.052Z,36.84
2018-12-08T14:37:45.599Z,37.53
2018-12-08T14:40:16.751Z,37.64
2018-12-08T14:42:47.585Z,37.76
2018-12-08T14:45:18.483Z,39.03
2018-12-08T14:47:49.156Z,39.27
2018-12-08T14:50:20.683Z,39.05
2018-12-08T14:52:51.395Z,40.05
2018-12-08T14:55:21.796Z,40.14
2018-12-08T14:57:52.164Z,40.53
2018-12-08T15:00:22.618Z,40.39
2018-12-08T15:02:53.133Z,40.34
2018-12-08T15:05:23.396Z,41.08
2018-12-08T15:07:53.771Z,42.10
2018-12-08T15:10:25.333Z,42.61
2018-12-08T15:12:55.999Z,41.60
2018-12-08T15:15:26.364Z,41.08
2018-12-08T15:17:57.211Z,41.70
2018-12-08T15:20:28.807Z,42.10
2018-12-08T15:22:59.231Z,41.97
2018-12-08T15:25:29.303Z,41.84
2018-12-08T15:27:59.812Z,41.74
2018-12-08T15:30:30.172Z,41.19
2018-12-08T15:33:00.775Z,41.84
2018-12-08T15:35:31.319Z,41.72
2018-12-08T15:38:01.991Z,42.06
2018-12-08T15:40:32.749Z,42.03
2018-12-08T15:43:03.138Z,42.23
2018-12-08T15:45:33.938Z,41.95
2018-12-08T15:48:04.367Z,42.23
2018-12-08T15:50:34.616Z,42.22
2018-12-08T15:53:05.208Z,42.69
2018-12-08T15:55:35.826Z,42.58
2018-12-08T15:58:06.704Z,42.93
2018-12-08T16:00:38.455Z,43.03
2018-12-08T16:03:09.194Z,43.38
2018-12-08T16:05:39.941Z,42.54
2018-12-08T16:08:10.969Z,42.16
2018-12-08T16:10:42.246Z,42.10
2018-12-08T16:13:12.718Z,42.65
2018-12-08T16:15:43.374Z,43.43
2018-12-08T16:18:14.124Z,43.08
2018-12-08T16:20:45.463Z,42.48
2018-12-08T16:23:15.956Z,43.52
2018-12-08T16:25:46.500Z,43.80
2018-12-08T16:28:17.258Z,43.46
2018-12-08T16:30:48.516Z,43.16
2018-12-08T16:33:18.931Z,43.67
2018-12-08T16:35:49.445Z,43.93
2018-12-08T16:38:19.736Z,43.03
2018-12-08T16:40:51.139Z,43.07
2018-12-08T16:43:21.825Z,43.63
2018-12-08T16:45:52.668Z,43.55
2018-12-08T16:48:23.407Z,43.20
2018-12-08T16:50:55.080Z,43.12
2018-12-08T16:53:25.344Z,42.03
2018-12-08T16:55:55.594Z,42.08
2018-12-08T16:58:25.983Z,43.05
2018-12-08T17:00:58.077Z,43.25
2018-12-08T17:03:28.630Z,42.38
2018-12-08T17:05:59.373Z,43.60
2018-12-08T17:08:30.244Z,43.46
2018-12-08T17:11:01.355Z,42.96
2018-12-08T17:13:32.016Z,42.91
2018-12-08T17:16:02.332Z,43.05
2018-12-08T17:18:32.547Z,43.35
2018-12-08T17:21:03.980Z,44.57
2018-12-08T17:23:34.477Z,44.12
2018-12-08T17:26:05.134Z,44.05
2018-12-08T17:28:35.836Z,43.94
2018-12-08T17:31:07.828Z,44.10
2018-12-08T17:33:38.767Z,43.86
2018-12-08T17:36:09.265Z,43.67
2018-12-08T17:38:40.122Z,42.54
2018-12-08T17:41:11.132Z,44.38
2018-12-08T17:43:41.703Z,43.60
2018-12-08T17:46:12.613Z,43.78
2018-12-08T17:48:43.357Z,43.00
2018-12-08T17:51:14.110Z,41.79
2018-12-08T17:53:44.615Z,42.01
2018-12-08T17:56:15.352Z,43.48
2018-12-08T17:58:45.879Z,43.94
2018-12-08T18:01:17.059Z,43.71
2018-12-08T18:03:47.580Z,43.49
2018-12-08T18:06:18.167Z,44.28
2018-12-08T18:08:48.830Z,42.67
2018-12-08T18:11:19.921Z,42.97
2018-12-08T18:13:50.352Z,43.64
2018-12-08T18:16:20.924Z,43.61
2018-12-08T18:18:51.347Z,43.76
2018-12-08T18:21:22.771Z,44.21
2018-12-08T18:23:53.567Z,43.84
2018-12-08T18:26:23.828Z,43.52
2018-12-08T18:28:54.455Z,45.10
2018-12-08T18:31:25.742Z,44.66
2018-12-08T18:33:56.097Z,45.45
2018-12-08T18:36:26.786Z,45.39
2018-12-08T18:38:57.401Z,45.88
2018-12-08T18:41:28.245Z,45.46
2018-12-08T18:43:58.894Z,45.89
2018-12-08T18:46:29.396Z,45.95
2018-12-08T18:48:59.727Z,45.46
2018-12-08T18:51:30.287Z,45.90
2018-12-08T18:54:00.796Z,46.07
2018-12-08T18:56:31.315Z,45.76
2018-12-08T18:59:02.168Z,45.97
2018-12-08T19:01:33.501Z,45.97
2018-12-08T19:04:04.069Z,46.05
2018-12-08T19:06:34.599Z,45.77
2018-12-08T19:10:08.842Z,46.14
2018-12-08T19:12:39.634Z,46.35
2018-12-08T19:15:11.012Z,46.80
2018-12-08T19:17:42.261Z,46.96
2018-12-08T19:20:13.533Z,47.41
2018-12-08T19:22:43.976Z,47.51
2018-12-08T19:25:14.859Z,47.49
2018-12-08T19:27:46.805Z,47.51
2018-12-08T19:30:17.953Z,47.91
2018-12-08T19:32:48.585Z,47.45
2018-12-08T19:35:18.968Z,47.64
2018-12-08T19:37:50.406Z,47.56
2018-12-08T19:40:21.460Z,47.74
2018-12-08T19:42:52.309Z,47.85
2018-12-08T19:45:23.281Z,48.79
2018-12-08T19:47:54.667Z,48.50
2018-12-08T19:50:24.942Z,48.40
2018-12-08T19:52:56.067Z,48.25
2018-12-08T19:55:26.587Z,47.82
2018-12-08T19:57:57.207Z,47.79
2018-12-08T20:00:27.910Z,48.57
2018-12-08T20:02:57.980Z,50.26
2018-12-08T20:05:28.922Z,49.97
2018-12-08T20:08:00.240Z,50.55
2018-12-08T20:10:31.217Z,50.46
2018-12-08T20:13:01.801Z,49.75
2018-12-08T20:15:32.557Z,48.65
2018-12-08T20:18:03.936Z,48.10
2018-12-08T20:20:34.478Z,48.40
2018-12-08T20:23:05.194Z,48.60
2018-12-08T20:25:35.803Z,48.36
2018-12-08T20:28:06.641Z,48.72
2018-12-08T20:30:37.499Z,48.90
2018-12-08T20:33:07.871Z,50.12
2018-12-08T20:35:38.702Z,49.60
2018-12-08T20:38:09.676Z,49.60
2018-12-08T20:40:40.400Z,49.00
2018-12-08T20:43:11.048Z,50.51
2018-12-08T20:45:41.463Z,52.16
2018-12-08T20:48:12.741Z,51.36
2018-12-08T20:50:43.243Z,49.96
2018-12-08T20:53:15.081Z,49.57
2018-12-08T20:55:45.944Z,49.50
2018-12-08T20:58:17.709Z,49.64
2018-12-08T21:00:48.263Z,49.21
2018-12-08T21:03:19.382Z,49.50
2018-12-08T21:05:50.064Z,51.52
2018-12-08T21:08:20.989Z,50.88
2018-12-08T21:10:51.924Z,50.31
2018-12-08T21:13:22.294Z,50.04
2018-12-08T21:15:52.903Z,49.87
2018-12-08T21:18:23.757Z,50.05
2018-12-08T21:20:54.157Z,50.62
2018-12-08T21:23:24.643Z,49.59
2018-12-08T21:25:55.244Z,49.34
2018-12-08T21:28:26.670Z,48.71
2018-12-08T21:30:57.249Z,49.20
2018-12-08T21:33:27.974Z,49.24
2018-12-08T21:35:58.875Z,49.62
2018-12-08T21:38:30.084Z,49.37
2018-12-08T21:41:00.623Z,49.78
2018-12-08T21:43:31.081Z,50.29
2018-12-08T21:46:02.009Z,50.85
2018-12-08T21:48:33.720Z,50.50
2018-12-08T21:51:04.338Z,51.41
2018-12-08T21:53:34.777Z,51.51
2018-12-08T21:56:05.163Z,51.57
2018-12-08T21:58:36.227Z,51.37
2018-12-08T22:01:06.977Z,51.01
2018-12-08T22:03:37.375Z,50.27
2018-12-08T22:06:08.076Z,50.20
2018-12-08T22:08:38.728Z,50.12
2018-12-08T22:11:09.814Z,50.66
2018-12-08T22:13:40.340Z,50.64
2018-12-08T22:16:10.847Z,50.79
2018-12-08T22:18:42.621Z,51.61
2018-12-08T22:21:13.622Z,52.07
2018-12-08T22:23:44.374Z,51.72
2018-12-08T22:26:15.785Z,51.15
2018-12-08T22:28:47.595Z,51.12
2018-12-08T22:31:18.412Z,50.06
2018-12-08T22:33:49.100Z,50.59
2018-12-08T22:36:19.977Z,50.42
2018-12-08T22:38:50.920Z,50.44
2018-12-08T22:41:21.885Z,50.81
2018-12-08T22:43:52.668Z,50.33
2018-12-08T22:46:23.653Z,50.77
2018-12-08T22:48:54.543Z,50.77
2018-12-08T22:51:26.545Z,50.47
2018-12-08T22:53:57.344Z,50.69
2018-12-08T22:56:27.833Z,50.44
2018-12-08T22:58:58.959Z,51.84
2018-12-08T23:01:29.420Z,52.09
2018-12-08T23:04:00.196Z,52.27
2018-12-08T23:06:31.092Z,52.50
2018-12-08T23:09:02.542Z,51.89
2018-12-08T23:11:33.246Z,51.85
2018-12-08T23:14:03.871Z,51.63
2018-12-08T23:16:34.379Z,52.36
2018-12-08T23:19:04.942Z,51.80
2018-12-08T23:21:35.467Z,51.96
2018-12-08T23:24:05.756Z,51.58
2018-12-08T23:26:36.089Z,51.57
2018-12-08T23:29:07.004Z,52.77
2018-12-08T23:31:37.440Z,52.55
2018-12-08T23:34:08.061Z,52.86
2018-12-08T23:36:38.726Z,52.12
2018-12-08T23:39:09.348Z,52.29
2018-12-08T23:41:40.065Z,52.67
2018-12-08T23:44:10.531Z,53.12
2018-12-08T23:46:40.979Z,52.76
2018-12-08T23:49:12.489Z,53.81
2018-12-08T23:51:43.018Z,54.68
2018-12-08T23:54:13.564Z,54.86
2018-12-08T23:56:44.260Z,53.54
2018-12-08T23:59:15.876Z,53.11
